Time;durP1;ratioP1;P1;durP2;ratioP2;P2;SDS_P1;SDS_P2;PMS_P1;PMS_P2;Temp;Humidity;BMP_temperature;BMP_pressure;BME280_temperature;BME280_humidity;BME280_pressure;Samples;Min_cycle;Max_cycle;Signal;HPM_P1;HPM_P2
2022/08/09 00:00:09;;;;;;;5.13;3.92;;;;;;;18.45;85.21;100247.97;5069112;28;20217;-62
2022/08/09 00:02:34;;;;;;;5.15;3.42;;;;;;;18.56;84.70;100244.00;5078526;28;20103;-62
2022/08/09 00:05:01;;;;;;;3.83;3.40;;;;;;;18.65;85.17;100247.97;5044184;28;20036;-62
2022/08/09 00:07:26;;;;;;;4.90;3.85;;;;;;;18.66;84.45;100237.41;5046332;28;20032;-62
2022/08/09 00:09:52;;;;;;;4.75;3.78;;;;;;;18.64;84.84;100234.03;5064454;28;20020;-62
2022/08/09 00:12:18;;;;;;;4.80;3.90;;;;;;;18.60;84.14;100228.06;5056950;28;20029;-62
2022/08/09 00:14:43;;;;;;;4.78;3.85;;;;;;;18.63;84.86;100212.16;5044556;28;20254;-62
2022/08/09 00:17:09;;;;;;;5.15;4.13;;;;;;;18.68;85.10;100203.22;5063953;28;20195;-62
2022/08/09 00:19:34;;;;;;;4.70;4.28;;;;;;;18.64;84.80;100186.81;5081012;28;20032;-62
2022/08/09 00:22:01;;;;;;;4.50;3.72;;;;;;;18.69;84.24;100190.03;5083694;28;20028;-63
2022/08/09 00:24:28;;;;;;;5.43;4.90;;;;;;;18.64;84.79;100189.44;5049857;28;20273;-62
2022/08/09 00:26:55;;;;;;;6.18;4.70;;;;;;;18.61;85.69;100185.16;5043135;28;20314;-62
2022/08/09 00:29:20;;;;;;;6.95;4.85;;;;;;;18.55;85.82;100171.47;5043787;28;20033;-62
2022/08/09 00:31:46;;;;;;;6.20;4.45;;;;;;;18.59;86.13;100171.25;5080954;28;20027;-62
2022/08/09 00:34:12;;;;;;;9.43;5.25;;;;;;;18.60;85.75;100166.88;5069684;28;20025;-62
2022/08/09 00:36:37;;;;;;;4.85;4.45;;;;;;;18.53;86.11;100168.09;5052965;28;20318;-63
2022/08/09 00:39:03;;;;;;;8.63;5.32;;;;;;;18.53;85.76;100173.34;5043454;28;20314;-62
2022/08/09 00:41:29;;;;;;;6.00;5.40;;;;;;;18.43;86.00;100163.25;5043560;28;20060;-62
2022/08/09 00:43:55;;;;;;;5.80;5.05;;;;;;;18.43;86.64;100165.03;5043476;28;20341;-62
2022/08/09 00:46:20;;;;;;;7.15;5.68;;;;;;;18.49;86.59;100148.16;5047876;28;20064;-62
2022/08/09 00:48:46;;;;;;;8.57;5.72;;;;;;;18.38;86.54;100117.19;5058526;28;20293;-62
2022/08/09 00:51:15;;;;;;;6.15;5.03;;;;;;;18.40;86.18;100107.50;5060328;28;20371;-61
2022/08/09 00:53:41;;;;;;;6.57;5.70;;;;;;;18.40;86.60;100113.56;5062768;28;20092;-62
2022/08/09 00:56:07;;;;;;;8.98;5.70;;;;;;;18.23;86.81;100111.72;5062638;28;20088;-62
2022/08/09 00:58:34;;;;;;;7.05;6.22;;;;;;;18.17;87.05;100119.91;5078696;28;20047;-62
2022/08/09 01:01:05;;;;;;;5.70;5.20;;;;;;;17.83;87.14;100081.22;5058488;28;20306;-62
2022/08/09 01:03:58;;;;;;;7.72;5.93;;;;;;;17.94;86.34;100129.66;5062946;28;20140;-61
2022/08/09 01:06:29;;;;;;;5.88;5.20;;;;;;;18.10;86.90;100126.34;5046444;28;20028;-62
2022/08/09 01:09:01;;;;;;;5.78;5.05;;;;;;;18.12;87.32;100137.59;5065639;28;20058;-62
2022/08/09 01:11:38;;;;;;;5.35;4.85;;;;;;;18.13;87.26;100135.81;5082683;28;20047;-62
2022/08/09 01:14:12;;;;;;;7.72;5.45;;;;;;;18.03;86.39;100120.50;5082792;28;20116;-62
2022/08/09 01:16:43;;;;;;;8.18;5.55;;;;;;;18.04;87.18;100137.94;5082539;28;20024;-62
2022/08/09 01:19:50;;;;;;;9.70;5.73;;;;;;;18.00;87.61;100135.50;5056175;28;20094;-62
2022/08/09 01:22:37;;;;;;;6.68;5.35;;;;;;;18.06;87.41;100130.00;5039017;28;20467;-63
2022/08/09 01:25:32;;;;;;;6.30;5.70;;;;;;;17.86;87.61;100136.97;5042509;28;20084;-62
2022/08/09 01:28:00;;;;;;;9.70;5.60;;;;;;;17.88;87.11;100129.88;5033138;28;20492;-62
2022/08/09 01:30:29;;;;;;;6.28;5.68;;;;;;;17.99;87.58;100145.16;5042452;28;20521;-62
2022/08/09 01:32:58;;;;;;;9.23;5.78;;;;;;;18.04;86.81;100137.94;5047866;28;20075;-62
2022/08/09 01:35:29;;;;;;;6.25;5.68;;;;;;;18.01;87.08;100131.97;5058630;28;20025;-62
2022/08/09 01:38:00;;;;;;;5.85;5.28;;;;;;;17.98;86.54;100134.75;5043739;28;20098;-62
2022/08/09 01:40:27;;;;;;;7.43;6.05;;;;;;;17.63;86.88;100103.94;5059655;28;20024;-62
2022/08/09 01:42:54;;;;;;;5.55;5.05;;;;;;;17.74;87.13;100122.66;5060694;28;20029;-62
2022/08/09 01:45:22;;;;;;;6.20;5.57;;;;;;;17.84;87.42;100166.75;5058371;28;20013;-62
2022/08/09 01:47:48;;;;;;;6.38;5.78;;;;;;;17.86;86.93;100173.66;5060081;28;20090;-62
2022/08/09 01:50:16;;;;;;;8.05;6.18;;;;;;;17.77;86.89;100163.56;5042381;28;20036;-62
2022/08/09 01:52:42;;;;;;;6.53;5.55;;;;;;;17.83;86.79;100163.31;5042137;28;20028;-62
2022/08/09 01:55:09;;;;;;;6.30;5.65;;;;;;;17.90;86.91;100164.78;5051654;28;20172;-62
2022/08/09 01:57:41;;;;;;;8.63;5.68;;;;;;;17.57;86.85;100118.16;5061334;28;20051;-62
2022/08/09 02:00:09;;;;;;;7.53;5.85;;;;;;;17.88;86.98;100168.34;5066432;28;20272;-62
2022/08/09 02:02:40;;;;;;;6.93;6.22;;;;;;;17.68;87.46;100136.00;5078441;28;20029;-62
2022/08/09 02:05:09;;;;;;;6.70;5.47;;;;;;;17.57;86.88;100117.28;5062259;28;20029;-62
2022/08/09 02:07:40;;;;;;;7.68;5.82;;;;;;;17.87;86.77;100164.00;5078502;28;20036;-62
2022/08/09 02:10:28;;;;;;;8.98;5.72;;;;;;;17.88;87.48;100158.69;5069766;28;20107;-61
2022/08/09 02:12:56;;;;;;;6.47;5.50;;;;;;;17.85;86.91;100155.38;5075185;28;20088;-61
2022/08/09 02:15:24;;;;;;;7.75;6.30;;;;;;;17.81;86.83;100156.44;5075978;28;20039;-61
2022/08/09 02:17:52;;;;;;;6.80;6.20;;;;;;;17.74;86.27;100166.31;5060375;28;20042;-60
2022/08/09 02:20:19;;;;;;;5.53;5.03;;;;;;;17.79;86.36;100163.50;5065848;28;20064;-60
2022/08/09 02:22:51;;;;;;;5.90;5.40;;;;;;;17.72;86.40;100160.31;5061341;28;20026;-61
2022/08/09 02:25:28;;;;;;;6.97;5.55;;;;;;;17.61;87.05;100160.75;5065107;28;20037;-61
2022/08/09 02:28:02;;;;;;;6.75;5.70;;;;;;;17.48;86.89;100191.84;5071056;28;20038;-61
2022/08/09 02:30:33;;;;;;;9.40;5.60;;;;;;;17.62;87.26;100183.41;5065398;28;20036;-62
2022/08/09 02:33:00;;;;;;;;;;;;;;;17.60;87.05;100188.72;5062734;28;20061;-61
2022/08/09 02:35:27;;;;;;;8.25;6.03;;;;;;;17.31;86.76;100149.81;5045605;28;19905;-61
2022/08/09 02:37:57;;;;;;;7.68;6.63;;;;;;;17.53;87.17;100203.00;5082003;28;20045;-61
2022/08/09 02:40:24;;;;;;;8.07;6.15;;;;;;;17.65;86.99;100190.31;5056119;28;20040;-61
2022/08/09 02:42:52;;;;;;;8.13;6.18;;;;;;;17.40;87.29;100144.19;5045100;28;20032;-61
2022/08/09 02:45:31;;;;;;;6.63;5.97;;;;;;;17.66;87.30;100171.91;5068972;28;20032;-62
2022/08/09 02:48:02;;;;;;;7.70;6.45;;;;;;;17.47;87.13;100150.03;5065131;28;20057;-61
2022/08/09 02:50:40;;;;;;;6.95;6.25;;;;;;;17.77;87.36;100201.09;5065048;28;20037;-61
2022/08/09 02:53:19;;;;;;;8.20;7.40;;;;;;;17.36;86.81;100155.72;5045129;28;20040;-61
2022/08/09 02:55:46;;;;;;;8.05;6.70;;;;;;;17.73;87.04;100209.16;5062209;28;20036;-61
2022/08/09 02:58:15;;;;;;;7.82;6.53;;;;;;;17.76;87.27;100209.88;5064797;28;20028;-61
2022/08/09 03:00:43;;;;;;;8.75;7.57;;;;;;;17.81;87.56;100211.44;5064476;28;20037;-61
2022/08/09 03:03:10;;;;;;;10.45;9.48;;;;;;;17.64;87.50;100215.63;5064673;28;20443;-62
2022/08/09 03:05:38;;;;;;;9.15;6.82;;;;;;;17.77;87.66;100203.72;5063751;28;20067;-61
2022/08/09 03:08:04;;;;;;;8.55;7.75;;;;;;;17.74;85.92;100210.84;5027069;28;20041;-61
2022/08/09 03:10:32;;;;;;;8.48;7.60;;;;;;;17.77;87.01;100216.81;5056682;28;20055;-61
2022/08/09 03:12:59;;;;;;;8.05;7.25;;;;;;;17.63;87.23;100174.66;5063430;28;20310;-62
2022/08/09 03:15:25;;;;;;;8.82;7.93;;;;;;;17.71;86.70;100209.22;5063339;28;20082;-62
2022/08/09 03:17:52;;;;;;;8.55;7.75;;;;;;;17.74;86.29;100211.72;5060698;28;20044;-62
2022/08/09 03:20:19;;;;;;;8.32;7.50;;;;;;;17.72;87.28;100216.16;5064027;28;20025;-61
2022/08/09 03:22:46;;;;;;;9.25;7.65;;;;;;;17.73;87.49;100222.28;5061516;28;20074;-62
2022/08/09 03:25:13;;;;;;;10.88;7.35;;;;;;;17.76;86.92;100217.72;5060712;28;20021;-62
2022/08/09 03:27:41;;;;;;;7.72;7.00;;;;;;;17.81;87.86;100211.44;5063999;28;20029;-62
2022/08/09 03:30:07;;;;;;;8.27;7.47;;;;;;;17.83;87.28;100218.34;5064433;28;20031;-62
2022/08/09 03:32:34;;;;;;;7.65;6.95;;;;;;;17.89;87.84;100214.59;5062582;28;20210;-61
2022/08/09 03:35:00;;;;;;;8.77;7.97;;;;;;;17.82;86.92;100202.69;5045858;28;20224;-61
2022/08/09 03:37:29;;;;;;;8.27;7.47;;;;;;;17.88;86.80;100203.25;5062987;28;20044;-62
2022/08/09 03:39:55;;;;;;;7.40;6.72;;;;;;;17.96;86.81;100208.19;5063113;28;20048;-62
2022/08/09 03:42:20;;;;;;;8.10;7.28;;;;;;;18.00;86.58;100201.91;5063292;28;20021;-62
2022/08/09 03:44:46;;;;;;;7.97;7.18;;;;;;;17.98;86.44;100198.50;5063870;28;20027;-63
2022/08/09 03:47:12;;;;;;;8.15;7.45;;;;;;;17.98;86.49;100198.50;5043209;28;20025;-61
2022/08/09 03:49:39;;;;;;;7.85;7.15;;;;;;;17.73;86.59;100147.13;5076338;28;20028;-62
2022/08/09 03:52:07;;;;;;;8.05;6.75;;;;;;;18.06;86.90;100198.16;5061328;28;20187;-62
2022/08/09 03:54:36;;;;;;;6.35;5.68;;;;;;;17.79;85.73;100153.88;5049638;28;20063;-62
2022/08/09 03:57:05;;;;;;;7.43;6.65;;;;;;;17.94;86.42;100192.53;5075289;28;20345;-61
2022/08/09 03:59:32;;;;;;;7.60;6.30;;;;;;;18.04;86.82;100198.25;5084114;28;20313;-61
2022/08/09 04:01:59;;;;;;;7.22;6.53;;;;;;;18.07;86.26;100200.72;5076872;28;20021;-61
2022/08/09 04:04:26;;;;;;;6.38;5.78;;;;;;;18.09;86.07;100203.28;5078142;28;20370;-61
2022/08/09 04:06:52;;;;;;;6.05;5.55;;;;;;;18.15;86.20;100207.38;5083979;28;20309;-62
2022/08/09 04:09:17;;;;;;;6.05;5.45;;;;;;;18.22;86.18;100201.78;5067337;28;20076;-62
2022/08/09 04:12:09;;;;;;;7.18;6.00;;;;;;;18.28;86.64;100196.28;5047380;28;20045;-62
2022/08/09 04:14:36;;;;;;;7.07;6.10;;;;;;;18.29;86.08;100191.88;5057597;28;20037;-62
2022/08/09 04:17:02;;;;;;;9.40;6.13;;;;;;;18.35;85.93;100196.84;5063753;28;20020;-61
2022/08/09 04:19:27;;;;;;;6.20;5.60;;;;;;;18.38;85.73;100201.94;5063094;28;20036;-62
2022/08/09 04:21:53;;;;;;;6.97;5.40;;;;;;;18.39;84.98;100201.03;5055745;28;20049;-62
2022/08/09 04:24:18;;;;;;;7.10;5.63;;;;;;;18.31;84.37;100199.69;5050389;28;20020;-62
2022/08/09 04:26:44;;;;;;;9.40;5.88;;;;;;;18.32;84.57;100207.47;5061966;28;20067;-62
2022/08/09 04:29:10;;;;;;;5.65;5.13;;;;;;;18.27;84.26;100214.69;5063210;28;20028;-62
2022/08/09 04:31:35;;;;;;;6.20;5.38;;;;;;;18.36;83.72;100211.66;5061934;28;20027;-62
2022/08/09 04:34:01;;;;;;;6.18;5.57;;;;;;;18.39;83.87;100214.16;5060952;28;20070;-62
2022/08/09 04:36:29;;;;;;;6.68;5.60;;;;;;;18.40;85.17;100212.41;5057010;28;20025;-62
2022/08/09 04:38:57;;;;;;;8.02;6.10;;;;;;;18.08;84.59;100159.63;5050711;28;20044;-62
2022/08/09 04:41:23;;;;;;;7.10;6.50;;;;;;;18.32;84.67;100198.78;5044121;28;20045;-62
2022/08/09 04:43:49;;;;;;;7.32;6.25;;;;;;;18.37;84.42;100189.78;5076874;28;20025;-62
2022/08/09 04:46:14;;;;;;;10.38;6.38;;;;;;;18.40;84.55;100197.50;5071423;28;20031;-62
2022/08/09 04:48:40;;;;;;;6.68;6.07;;;;;;;18.39;83.92;100192.31;5070290;28;20354;-61
2022/08/09 04:51:05;;;;;;;8.25;6.43;;;;;;;18.40;84.30;100205.38;5078368;28;20029;-62
2022/08/09 04:53:31;;;;;;;6.70;6.05;;;;;;;18.33;84.36;100193.44;5059601;28;20092;-61
2022/08/09 04:55:57;;;;;;;6.80;5.85;;;;;;;18.29;83.79;100197.13;5055450;28;20124;-62
2022/08/09 04:58:23;;;;;;;7.10;6.30;;;;;;;18.22;84.12;100200.94;5042723;28;20029;-62
2022/08/09 05:00:49;;;;;;;6.50;5.90;;;;;;;18.22;84.98;100190.47;5050954;28;20051;-62
2022/08/09 05:03:14;;;;;;;8.20;6.53;;;;;;;18.26;84.75;100192.88;5058123;28;20033;-62
2022/08/09 05:05:40;;;;;;;7.32;5.97;;;;;;;18.28;84.86;100190.19;5041707;28;20041;-61
2022/08/09 05:08:05;;;;;;;6.05;5.00;;;;;;;18.29;83.67;100186.66;5077019;28;20037;-62
2022/08/09 05:10:31;;;;;;;7.07;5.63;;;;;;;18.31;84.19;100192.66;5048001;28;20029;-62
2022/08/09 05:12:57;;;;;;;8.38;5.97;;;;;;;18.29;84.62;100199.75;5058383;28;20508;-62
2022/08/09 05:15:23;;;;;;;6.30;5.70;;;;;;;18.32;83.86;100189.13;5042257;28;20078;-62
2022/08/09 05:17:49;;;;;;;17.00;12.32;;;;;;;18.22;83.22;100178.19;5042377;28;20037;-62
2022/08/09 05:20:15;;;;;;;6.10;5.50;;;;;;;18.33;83.62;100182.97;5042484;28;20080;-62
2022/08/09 05:22:41;;;;;;;6.65;5.38;;;;;;;18.33;82.91;100188.22;5073550;28;20032;-62
2022/08/09 05:25:07;;;;;;;7.13;5.70;;;;;;;18.40;82.64;100186.16;5060247;28;20057;-61
2022/08/09 05:27:33;;;;;;;6.75;6.03;;;;;;;18.36;83.77;100174.94;5048723;28;20049;-62
2022/08/09 05:29:58;;;;;;;6.82;4.85;;;;;;;18.48;82.85;100175.31;5060649;28;20029;-63
2022/08/09 05:32:24;;;;;;;6.15;5.25;;;;;;;18.53;82.32;100176.78;5042381;28;20043;-62
2022/08/09 05:34:49;;;;;;;5.93;5.15;;;;;;;18.50;82.52;100179.56;5050481;28;20064;-62
2022/08/09 05:37:15;;;;;;;14.90;10.70;;;;;;;18.59;82.45;100175.66;5050681;28;20053;-62
2022/08/09 05:39:41;;;;;;;6.38;5.25;;;;;;;18.59;82.58;100173.03;5042010;28;20029;-62
2022/08/09 05:42:07;;;;;;;6.20;5.60;;;;;;;18.54;82.72;100165.38;5042039;28;20033;-62
2022/08/09 05:44:33;;;;;;;6.93;4.97;;;;;;;18.55;82.13;100171.47;5042706;28;20321;-63
2022/08/09 05:46:59;;;;;;;8.40;5.30;;;;;;;18.63;82.51;100179.84;5045761;28;20028;-63
2022/08/09 05:49:24;;;;;;;5.05;4.38;;;;;;;18.65;81.73;100179.78;5054843;28;20037;-62
2022/08/09 05:51:50;;;;;;;9.23;5.30;;;;;;;18.43;81.27;100188.66;5045284;28;20026;-61
2022/08/09 05:54:16;;;;;;;7.65;4.53;;;;;;;18.55;81.45;100188.06;5048329;28;20348;-61
2022/08/09 05:56:41;;;;;;;4.82;4.30;;;;;;;18.67;81.98;100189.28;5065912;28;20057;-62
2022/08/09 05:59:07;;;;;;;5.43;4.60;;;;;;;18.71;82.15;100188.22;5065723;28;20062;-63
2022/08/09 06:01:32;;;;;;;6.28;5.25;;;;;;;18.69;81.20;100190.03;5065623;28;20032;-62
2022/08/09 06:03:58;;;;;;;8.68;4.90;;;;;;;18.65;80.24;100188.47;5075254;28;20055;-62
2022/08/09 06:06:24;;;;;;;5.22;4.40;;;;;;;18.69;80.44;100189.19;5075123;28;20314;-62
2022/08/09 06:08:50;;;;;;;5.60;4.78;;;;;;;18.72;80.92;100189.06;5055794;28;20074;-62
2022/08/09 06:11:16;;;;;;;6.82;4.80;;;;;;;18.56;80.71;100167.94;5046088;28;20039;-62
2022/08/09 06:13:42;;;;;;;4.78;4.28;;;;;;;18.78;81.31;100188.75;5044485;28;20067;-62
2022/08/09 06:16:09;;;;;;;6.38;4.30;;;;;;;18.83;81.40;100185.94;5045306;28;20029;-62
2022/08/09 06:18:36;;;;;;;5.03;4.10;;;;;;;18.90;79.66;100179.50;5057937;28;20213;-61
2022/08/09 06:21:03;;;;;;;7.80;4.53;;;;;;;18.98;80.30;100177.31;5082145;28;20091;-62
2022/08/09 06:23:30;;;;;;;6.45;4.40;;;;;;;18.94;80.31;100162.66;5045553;28;20367;-61
2022/08/09 06:25:57;;;;;;;6.20;4.82;;;;;;;18.89;79.68;100148.91;5045384;28;20041;-61
2022/08/09 06:28:22;;;;;;;8.23;5.82;;;;;;;19.19;79.42;100179.84;5045130;28;20056;-61
2022/08/09 06:30:48;;;;;;;5.50;4.03;;;;;;;19.30;79.18;100177.53;5053329;28;20033;-62
2022/08/09 06:33:13;;;;;;;5.05;4.13;;;;;;;19.33;79.03;100169.50;5065198;28;20089;-61
2022/08/09 06:35:39;;;;;;;5.63;4.50;;;;;;;19.27;78.04;100169.81;5065325;28;20321;-63
2022/08/09 06:38:05;;;;;;;4.93;4.43;;;;;;;19.24;79.40;100170.81;5083408;28;20064;-63
2022/08/09 06:40:31;;;;;;;4.60;3.90;;;;;;;19.23;79.04;100166.47;5057120;28;20221;-61
2022/08/09 06:42:56;;;;;;;8.00;4.35;;;;;;;19.27;78.44;100177.69;5045654;28;20025;-63
2022/08/09 06:45:22;;;;;;;6.35;4.45;;;;;;;19.31;78.69;100173.97;5058519;28;20241;-63
2022/08/09 06:47:48;;;;;;;9.15;4.35;;;;;;;19.22;77.45;100172.66;5061074;28;20147;-62
2022/08/09 06:50:15;;;;;;;4.25;3.85;;;;;;;19.09;77.73;100150.56;5045708;28;20079;-62
2022/08/09 06:52:44;;;;;;;7.07;4.38;;;;;;;19.28;77.47;100176.75;5045508;28;20385;-62
2022/08/09 06:55:11;;;;;;;6.82;4.15;;;;;;;19.29;77.85;100175.81;5055218;28;20036;-63
2022/08/09 06:57:37;;;;;;;6.65;4.10;;;;;;;19.25;78.05;100148.00;5070132;28;20036;-62
2022/08/09 07:00:04;;;;;;;4.40;4.00;;;;;;;19.29;77.73;100167.94;5085181;28;20032;-62
2022/08/09 07:02:31;;;;;;;5.55;4.10;;;;;;;19.42;77.45;100170.81;5085567;28;20024;-62
2022/08/09 07:04:57;;;;;;;6.30;3.83;;;;;;;19.46;77.80;100172.34;5061983;28;20029;-62
2022/08/09 07:07:22;;;;;;;7.53;3.72;;;;;;;19.39;77.38;100168.34;5056182;28;20071;-63
2022/08/09 07:09:48;;;;;;;5.80;3.95;;;;;;;19.47;77.49;100168.81;5053088;28;20083;-62
2022/08/09 07:12:14;;;;;;;4.97;3.90;;;;;;;19.62;77.63;100186.44;5045034;28;20032;-63
2022/08/09 07:14:40;;;;;;;3.92;3.38;;;;;;;19.75;77.22;100186.66;5045194;28;20028;-60
2022/08/09 07:17:06;;;;;;;5.25;3.60;;;;;;;19.68;77.10;100187.88;5044941;28;20037;-62
2022/08/09 07:19:31;;;;;;;5.70;4.03;;;;;;;19.65;77.09;100188.91;5070546;28;20309;-62
2022/08/09 07:21:57;;;;;;;6.05;3.67;;;;;;;19.71;77.50;100177.22;5062759;28;20020;-62
2022/08/09 07:24:23;;;;;;;3.70;3.40;;;;;;;19.86;77.72;100185.25;5051122;28;20271;-62
2022/08/09 07:26:48;;;;;;;7.40;3.63;;;;;;;19.85;78.05;100183.56;5044893;28;20025;-61
2022/08/09 07:29:14;;;;;;;4.47;3.67;;;;;;;19.79;77.33;100180.31;5063972;28;20039;-62
2022/08/09 07:31:40;;;;;;;3.70;3.20;;;;;;;19.72;77.53;100178.91;5049943;28;20029;-62
2022/08/09 07:34:07;;;;;;;5.30;3.95;;;;;;;19.71;76.56;100184.22;5044550;28;20057;-62
2022/08/09 07:36:33;;;;;;;6.68;3.70;;;;;;;19.72;77.49;100184.16;5049659;28;20028;-62
2022/08/09 07:38:58;;;;;;;5.47;3.50;;;;;;;19.78;77.10;100181.22;5053400;28;20214;-62
2022/08/09 07:41:25;;;;;;;7.80;3.50;;;;;;;19.73;77.21;100183.22;5047834;28;20025;-61
2022/08/09 07:43:50;;;;;;;4.20;3.35;;;;;;;19.78;76.49;100186.47;5076287;28;20028;-61
2022/08/09 07:46:16;;;;;;;4.50;3.63;;;;;;;19.76;77.31;100193.59;5073743;28;20025;-62
2022/08/09 07:48:42;;;;;;;3.75;3.45;;;;;;;19.74;77.27;100194.59;5070297;28;20025;-61
2022/08/09 07:51:08;;;;;;;4.07;3.55;;;;;;;19.80;77.48;100194.31;5079613;28;20336;-61
2022/08/09 07:53:34;;;;;;;5.97;3.80;;;;;;;19.84;77.61;100195.88;5044352;28;20333;-61
2022/08/09 07:56:00;;;;;;;4.70;3.45;;;;;;;19.82;77.76;100198.56;5061198;28;20025;-61
2022/08/09 07:58:25;;;;;;;4.85;3.08;;;;;;;19.91;77.08;100202.50;5063657;28;20063;-61
2022/08/09 08:00:51;;;;;;;4.95;3.22;;;;;;;19.86;77.22;100203.66;5064083;28;20084;-61
2022/08/09 08:03:17;;;;;;;4.18;3.10;;;;;;;19.83;77.23;100192.38;5065687;28;20119;-61
2022/08/09 08:05:42;;;;;;;4.63;3.67;;;;;;;19.94;77.13;100193.59;5083050;28;20028;-61
2022/08/09 08:08:08;;;;;;;7.28;3.85;;;;;;;19.93;77.09;100171.72;5046879;28;20049;-61
2022/08/09 08:10:34;;;;;;;4.35;3.63;;;;;;;19.92;76.71;100182.31;5057389;28;20360;-62
2022/08/09 08:13:00;;;;;;;4.78;3.60;;;;;;;19.99;76.36;100178.41;5063816;28;20029;-62
2022/08/09 08:15:26;;;;;;;4.40;3.80;;;;;;;19.93;76.99;100179.59;5059570;28;20040;-61
2022/08/09 08:17:52;;;;;;;5.03;3.50;;;;;;;19.95;76.30;100182.13;5043934;28;20029;-62
2022/08/09 08:20:18;;;;;;;5.72;3.70;;;;;;;19.94;76.85;100185.72;5043584;28;20294;-63
2022/08/09 08:22:44;;;;;;;6.45;4.28;;;;;;;19.94;76.09;100202.34;5058665;28;20229;-62
2022/08/09 08:25:10;;;;;;;4.88;3.60;;;;;;;19.94;76.48;100201.50;5073451;28;20031;-61
2022/08/09 08:27:36;;;;;;;3.85;3.55;;;;;;;19.94;76.22;100214.66;5083516;28;20252;-62
2022/08/09 08:30:03;;;;;;;5.07;4.10;;;;;;;19.82;75.92;100202.97;5082083;28;20115;-62
2022/08/09 08:32:30;;;;;;;6.65;3.90;;;;;;;19.88;76.56;100207.91;5042460;28;20040;-62
2022/08/09 08:34:56;;;;;;;4.95;3.90;;;;;;;19.88;75.91;100199.16;5059834;28;20029;-62
2022/08/09 08:37:22;;;;;;;4.65;4.03;;;;;;;19.82;75.61;100221.38;5063407;28;20040;-62
2022/08/09 08:39:47;;;;;;;4.22;3.40;;;;;;;19.99;76.08;100215.22;5062686;28;20314;-62
2022/08/09 08:42:13;;;;;;;4.20;3.80;;;;;;;20.00;75.84;100217.78;5062170;28;20020;-62
2022/08/09 08:44:41;;;;;;;5.82;4.03;;;;;;;19.85;75.52;100210.69;5063381;28;20025;-62
2022/08/09 08:47:07;;;;;;;4.28;3.60;;;;;;;20.03;76.20;100216.78;5063426;28;20043;-62
2022/08/09 08:49:39;;;;;;;7.32;4.63;;;;;;;20.06;76.43;100207.88;5063106;28;20029;-63
2022/08/09 08:52:06;;;;;;;6.55;4.20;;;;;;;19.92;76.07;100169.16;5062284;28;20079;-62
2022/08/09 08:54:33;;;;;;;4.10;3.70;;;;;;;20.00;75.56;100165.19;5061956;28;20332;-62
2022/08/09 08:56:59;;;;;;;9.07;4.47;;;;;;;20.33;75.58;100214.28;5063186;28;20039;-62
2022/08/09 08:59:25;;;;;;;6.50;4.30;;;;;;;20.35;75.05;100219.47;5063246;28;20088;-62
2022/08/09 09:01:50;;;;;;;4.43;4.03;;;;;;;20.42;75.27;100212.97;5063091;28;20029;-62
2022/08/09 09:04:18;;;;;;;4.50;4.10;;;;;;;20.17;75.54;100174.81;5052555;28;20038;-62
2022/08/09 09:06:47;;;;;;;5.43;3.92;;;;;;;20.35;74.66;100214.22;5043266;28;20079;-62
2022/08/09 09:09:15;;;;;;;5.13;3.42;;;;;;;20.36;75.15;100218.53;5042022;28;20368;-62
2022/08/09 09:11:41;;;;;;;4.57;4.07;;;;;;;20.36;75.17;100208.03;5042148;28;20033;-62
2022/08/09 09:14:21;;;;;;;6.75;3.80;;;;;;;20.41;75.33;100213.91;5042929;28;20033;-62
2022/08/09 09:16:47;;;;;;;4.82;3.88;;;;;;;20.49;75.62;100224.88;5043083;28;20087;-62
2022/08/09 09:19:13;;;;;;;5.32;4.82;;;;;;;20.50;75.29;100217.81;5062699;28;20029;-62
2022/08/09 09:22:02;;;;;;;4.55;4.15;;;;;;;20.58;75.22;100217.38;5075990;28;20022;-63
2022/08/09 09:24:31;;;;;;;5.30;4.80;;;;;;;20.47;74.24;100224.09;5054614;28;20024;-62
2022/08/09 09:26:58;;;;;;;5.63;4.45;;;;;;;20.33;74.84;100179.25;5086118;28;20382;-61
2022/08/09 09:29:33;;;;;;;5.97;5.13;;;;;;;20.39;74.02;100225.44;5056972;28;20028;-60
2022/08/09 09:32:00;;;;;;;6.22;5.72;;;;;;;20.32;75.01;100212.63;5050027;28;20045;-61
2022/08/09 09:34:26;;;;;;;5.53;5.03;;;;;;;20.46;74.91;100211.00;5061963;28;20029;-62
2022/08/09 09:36:52;;;;;;;7.40;6.63;;;;;;;20.06;76.05;100200.00;5058908;28;20060;-61
2022/08/09 09:39:18;;;;;;;7.65;6.50;;;;;;;20.05;76.21;100201.78;5046440;28;20071;-61
2022/08/09 09:41:44;;;;;;;7.47;6.45;;;;;;;19.95;76.60;100205.81;5046840;28;20025;-61
2022/08/09 09:44:10;;;;;;;7.82;6.30;;;;;;;19.89;76.73;100191.19;5064509;28;20084;-61
2022/08/09 09:46:41;;;;;;;8.75;7.55;;;;;;;19.99;77.05;100207.34;5070851;28;20127;-61
2022/08/09 09:49:10;;;;;;;8.23;7.00;;;;;;;19.41;77.05;100120.06;5057457;28;20322;-61
2022/08/09 09:51:39;;;;;;;8.45;7.65;;;;;;;19.80;77.17;100163.63;5053889;28;20063;-61
2022/08/09 09:54:18;;;;;;;9.10;8.20;;;;;;;19.94;76.80;100154.19;5066280;28;20032;-61
2022/08/09 09:56:46;;;;;;;10.27;6.75;;;;;;;20.38;76.26;100182.50;5046624;28;20036;-62
2022/08/09 09:59:14;;;;;;;9.23;7.07;;;;;;;20.52;76.35;100181.72;5057916;28;20244;-62
2022/08/09 10:01:44;;;;;;;9.43;7.50;;;;;;;20.84;75.67;100197.56;5078732;28;20044;-62
2022/08/09 10:04:15;;;;;;;9.98;7.57;;;;;;;20.77;75.31;100186.50;5067593;28;20336;-62
2022/08/09 10:06:43;;;;;;;8.30;7.60;;;;;;;20.77;74.90;100190.94;5046273;28;20033;-62
2022/08/09 10:09:14;;;;;;;8.13;7.32;;;;;;;20.59;75.67;100193.59;5046324;28;20085;-62
2022/08/09 10:11:40;;;;;;;9.05;8.25;;;;;;;20.64;75.33;100190.75;5046400;28;20365;-61
2022/08/09 10:14:05;;;;;;;9.43;7.95;;;;;;;20.66;75.40;100195.00;5046189;28;20021;-62
2022/08/09 10:16:36;;;;;;;7.63;6.78;;;;;;;20.73;75.17;100199.94;5070054;28;20032;-62
2022/08/09 10:19:05;;;;;;;9.13;7.10;;;;;;;20.59;76.02;100142.75;5057902;28;20200;-62
2022/08/09 10:21:32;;;;;;;7.20;6.32;;;;;;;21.04;74.68;100192.00;5065814;28;20021;-62
2022/08/09 10:24:03;;;;;;;8.40;5.22;;;;;;;21.02;73.06;100180.72;5065992;28;20021;-61
2022/08/09 10:26:29;;;;;;;6.00;5.50;;;;;;;21.14;73.45;100189.69;5046106;28;20039;-61
2022/08/09 10:28:56;;;;;;;6.03;5.47;;;;;;;21.16;74.20;100186.97;5049909;28;20025;-61
2022/08/09 10:31:22;;;;;;;7.43;5.88;;;;;;;21.16;73.47;100195.75;5053743;28;20067;-61
2022/08/09 10:33:49;;;;;;;6.50;5.90;;;;;;;21.14;71.68;100199.41;5051792;28;20037;-61
2022/08/09 10:36:15;;;;;;;7.72;6.43;;;;;;;21.07;73.62;100193.63;5067339;28;20037;-61
2022/08/09 10:38:44;;;;;;;8.20;5.97;;;;;;;21.13;72.58;100192.41;5085908;28;20092;-61
2022/08/09 10:41:10;;;;;;;6.38;5.68;;;;;;;21.25;72.70;100183.81;5050891;28;20033;-61
2022/08/09 10:43:40;;;;;;;13.15;6.47;;;;;;;21.32;72.51;100192.19;5063213;28;20024;-61
2022/08/09 10:46:37;;;;;;;8.38;5.68;;;;;;;21.39;72.88;100188.25;5064776;28;20321;-62
2022/08/09 10:49:32;;;;;;;7.32;5.75;;;;;;;21.45;72.66;100190.56;5073349;28;20321;-61
2022/08/09 10:52:19;;;;;;;9.52;6.43;;;;;;;21.63;71.77;100190.44;5066984;28;20057;-61
2022/08/09 10:54:46;;;;;;;6.80;6.10;;;;;;;21.67;71.94;100184.88;5051418;28;20021;-61
2022/08/09 10:57:13;;;;;;;6.80;6.20;;;;;;;21.38;70.94;100155.81;5065289;28;20041;-61
2022/08/09 10:59:39;;;;;;;6.68;6.07;;;;;;;21.47;71.05;100193.94;5048379;28;20441;-61
2022/08/09 11:02:11;;;;;;;8.15;5.90;;;;;;;21.43;70.49;100179.25;5078138;28;20032;-61
2022/08/09 11:04:37;;;;;;;10.05;6.75;;;;;;;21.27;72.33;100196.91;5045163;28;20222;-61
2022/08/09 11:07:02;;;;;;;6.93;6.28;;;;;;;21.16;72.14;100205.41;5060680;28;20028;-61
2022/08/09 11:09:54;;;;;;;7.35;6.70;;;;;;;21.27;71.60;100205.66;5078930;28;20029;-61
2022/08/09 11:12:25;;;;;;;7.47;6.78;;;;;;;21.35;71.51;100205.22;5041905;28;20037;-61
2022/08/09 11:14:56;;;;;;;7.03;6.40;;;;;;;21.21;71.54;100211.28;5058547;28;20127;-60
2022/08/09 11:17:21;;;;;;;8.63;6.33;;;;;;;21.34;71.68;100204.34;5056455;28;20078;-61
2022/08/09 11:19:50;;;;;;;7.10;5.88;;;;;;;21.18;71.12;100204.41;5062364;28;20466;-60
2022/08/09 11:22:16;;;;;;;7.45;5.95;;;;;;;21.27;70.37;100200.38;5063177;28;20118;-61
2022/08/09 11:25:02;;;;;;;9.48;5.93;;;;;;;21.32;70.57;100208.00;5062493;28;20101;-61
2022/08/09 11:27:35;;;;;;;7.47;5.90;;;;;;;21.38;70.17;100195.34;5057109;28;20055;-61